createdAt,value
2023-04-17T00:01:06.240Z,7.72
2023-04-17T00:03:33.824Z,7.32
2023-04-17T00:06:01.412Z,6.82
2023-04-17T00:08:28.732Z,6.07
2023-04-17T00:11:06.532Z,6.30
2023-04-17T00:13:35.787Z,5.60
2023-04-17T00:16:03.357Z,5.97
2023-04-17T00:18:30.790Z,5.88
2023-04-17T00:20:58.156Z,5.45
2023-04-17T00:23:26.682Z,5.57
2023-04-17T00:25:54.054Z,5.75
2023-04-17T00:28:21.435Z,5.57
2023-04-17T00:30:48.785Z,5.60
2023-04-17T00:33:16.446Z,4.82
2023-04-17T00:35:43.860Z,5.00
2023-04-17T00:38:11.199Z,5.40
2023-04-17T00:40:38.581Z,5.68
2023-04-17T00:43:07.556Z,7.18
2023-04-17T00:45:35.742Z,6.82
2023-04-17T00:48:04.958Z,6.90
2023-04-17T00:50:32.542Z,6.40
2023-04-17T00:53:00.693Z,6.30
2023-04-17T00:55:28.645Z,7.25
2023-04-17T00:57:56.593Z,6.13
2023-04-17T01:00:24.667Z,6.45
2023-04-17T01:02:52.716Z,7.03
2023-04-17T01:05:20.679Z,8.52
2023-04-17T01:07:48.074Z,9.18
2023-04-17T01:10:15.827Z,9.73
2023-04-17T01:12:46.825Z,8.85
2023-04-17T01:15:14.269Z,8.32
2023-04-17T01:17:41.763Z,8.00
2023-04-17T01:20:11.152Z,8.43
2023-04-17T01:22:38.631Z,8.45
2023-04-17T01:25:06.761Z,8.27
2023-04-17T01:27:35.363Z,9.15
2023-04-17T01:30:03.157Z,10.70
2023-04-17T01:32:30.528Z,9.00
2023-04-17T01:34:57.911Z,12.15
2023-04-17T01:37:25.217Z,9.23
2023-04-17T01:39:52.628Z,9.43
2023-04-17T01:42:19.950Z,10.30
2023-04-17T01:44:47.269Z,8.73
2023-04-17T01:47:14.702Z,8.48
2023-04-17T01:49:42.016Z,8.38
2023-04-17T01:52:09.373Z,8.30
2023-04-17T01:54:36.723Z,7.57
2023-04-17T01:57:04.052Z,7.88
2023-04-17T01:59:31.352Z,6.80
2023-04-17T02:01:58.708Z,7.88
2023-04-17T02:04:26.227Z,7.80
2023-04-17T02:06:53.676Z,7.57
2023-04-17T02:09:21.027Z,8.02
2023-04-17T02:11:51.256Z,10.07
2023-04-17T02:14:19.004Z,8.48
2023-04-17T02:16:46.346Z,9.18
2023-04-17T02:19:14.078Z,9.75
2023-04-17T02:21:41.485Z,9.30
2023-04-17T02:24:08.810Z,9.00
2023-04-17T02:26:37.227Z,9.60
2023-04-17T02:29:04.622Z,8.90
2023-04-17T02:31:32.315Z,9.10
2023-04-17T02:33:59.651Z,9.05
2023-04-17T02:36:27.445Z,8.50
2023-04-17T02:38:54.858Z,9.02
2023-04-17T02:41:22.165Z,9.57
2023-04-17T02:43:49.505Z,9.13
2023-04-17T02:46:16.848Z,9.10
2023-04-17T02:48:44.182Z,7.88
2023-04-17T02:51:11.920Z,8.20
2023-04-17T02:53:39.288Z,8.70
2023-04-17T02:56:06.647Z,7.25
2023-04-17T02:58:34.027Z,7.10
2023-04-17T03:01:02.630Z,7.45
2023-04-17T03:03:35.434Z,7.07
2023-04-17T03:06:03.172Z,6.93
2023-04-17T03:08:35.684Z,6.75
2023-04-17T03:11:03.603Z,7.97
2023-04-17T03:13:31.622Z,8.40
2023-04-17T03:15:59.344Z,7.50
2023-04-17T03:18:26.674Z,7.40
2023-04-17T03:20:54.342Z,7.28
2023-04-17T03:23:21.756Z,7.75
2023-04-17T03:25:49.378Z,6.78
2023-04-17T03:28:16.831Z,6.68
2023-04-17T03:30:44.202Z,6.78
2023-04-17T03:33:11.586Z,6.78
2023-04-17T03:35:38.983Z,6.55
2023-04-17T03:38:06.452Z,6.63
2023-04-17T03:40:33.913Z,6.30
2023-04-17T03:43:02.041Z,6.85
2023-04-17T03:45:29.485Z,6.75
2023-04-17T03:47:56.842Z,6.85
2023-04-17T03:50:24.205Z,6.70
2023-04-17T03:52:51.628Z,6.28
2023-04-17T03:55:19.491Z,6.18
2023-04-17T03:57:48.661Z,6.15
2023-04-17T04:00:16.503Z,6.18
2023-04-17T04:02:44.097Z,5.93
2023-04-17T04:05:11.631Z,5.90
2023-04-17T04:07:38.986Z,6.32
2023-04-17T04:10:06.712Z,6.13
2023-04-17T04:12:34.048Z,6.57
2023-04-17T04:15:01.608Z,6.35
2023-04-17T04:17:29.032Z,6.20
2023-04-17T04:19:56.420Z,6.35
2023-04-17T04:22:23.755Z,5.22
2023-04-17T04:24:53.903Z,5.65
2023-04-17T04:27:22.858Z,5.50
2023-04-17T04:29:50.449Z,5.60
2023-04-17T04:32:17.802Z,6.45
2023-04-17T04:34:45.316Z,6.82
2023-04-17T04:37:15.890Z,6.80
2023-04-17T04:39:43.561Z,6.35
2023-04-17T04:42:10.951Z,5.85
2023-04-17T04:44:38.372Z,6.90
2023-04-17T04:47:05.908Z,5.35
2023-04-17T04:49:33.300Z,6.03
2023-04-17T04:52:00.793Z,6.20
2023-04-17T04:54:28.304Z,6.25
2023-04-17T04:56:55.903Z,6.28
2023-04-17T04:59:23.385Z,6.85
2023-04-17T05:01:50.963Z,6.47
2023-04-17T05:04:18.480Z,6.18
2023-04-17T05:06:45.966Z,6.13
2023-04-17T05:09:15.466Z,5.65
2023-04-17T05:11:44.262Z,5.65
2023-04-17T05:14:11.652Z,5.32
2023-04-17T05:16:39.051Z,5.35
2023-04-17T05:19:06.576Z,5.28
2023-04-17T05:21:34.143Z,6.30
2023-04-17T05:24:01.744Z,5.40
2023-04-17T05:26:29.320Z,5.95
2023-04-17T05:28:56.792Z,5.85
2023-04-17T05:31:24.117Z,5.35
2023-04-17T05:33:51.489Z,6.97
2023-04-17T05:36:18.800Z,6.60
2023-04-17T05:38:46.415Z,6.72
2023-04-17T05:41:13.863Z,7.43
2023-04-17T05:43:42.928Z,7.80
2023-04-17T05:46:10.310Z,6.60
2023-04-17T05:48:37.661Z,6.80
2023-04-17T05:51:05.191Z,7.25
2023-04-17T05:53:33.383Z,7.65
2023-04-17T05:56:01.958Z,7.55
2023-04-17T05:58:29.305Z,7.35
2023-04-17T06:00:57.045Z,7.25
2023-04-17T06:03:24.731Z,8.30
2023-04-17T06:05:52.412Z,7.07
2023-04-17T06:08:19.853Z,7.10
2023-04-17T06:10:47.230Z,6.50
2023-04-17T06:13:14.647Z,7.40
2023-04-17T06:15:41.996Z,7.18
2023-04-17T06:18:09.305Z,8.73
2023-04-17T06:20:38.668Z,8.63
2023-04-17T06:23:07.362Z,7.00
2023-04-17T06:25:37.656Z,6.82
2023-04-17T06:28:05.094Z,6.65
2023-04-17T06:30:32.463Z,6.93
2023-04-17T06:32:59.796Z,6.68
2023-04-17T06:35:27.271Z,7.72
2023-04-17T06:37:55.131Z,7.07
2023-04-17T06:40:22.470Z,6.78
2023-04-17T06:42:49.774Z,6.60
2023-04-17T06:45:17.140Z,7.75
2023-04-17T06:47:46.713Z,8.40
2023-04-17T06:50:14.313Z,7.35
2023-04-17T06:52:41.658Z,7.10
2023-04-17T06:55:09.268Z,8.25
2023-04-17T06:57:37.036Z,6.97
2023-04-17T07:00:04.673Z,6.55
2023-04-17T07:02:32.175Z,7.22
2023-04-17T07:04:59.808Z,6.75
2023-04-17T07:07:28.218Z,6.90
2023-04-17T07:09:55.607Z,6.90
2023-04-17T07:12:23.013Z,7.90
2023-04-17T07:14:50.514Z,8.07
2023-04-17T07:17:18.097Z,6.65
2023-04-17T07:19:45.652Z,8.20
2023-04-17T07:22:12.984Z,8.88
2023-04-17T07:24:40.535Z,8.20
2023-04-17T07:27:07.983Z,8.25
2023-04-17T07:29:35.832Z,7.82
2023-04-17T07:32:04.380Z,8.63
2023-04-17T07:34:33.002Z,8.38
2023-04-17T07:37:00.652Z,6.70
2023-04-17T07:39:31.662Z,8.35
2023-04-17T07:41:59.084Z,8.30
2023-04-17T07:44:26.433Z,7.97
2023-04-17T07:46:53.838Z,9.13
2023-04-17T07:49:21.280Z,8.48
2023-04-17T07:51:48.718Z,7.88
2023-04-17T07:54:16.051Z,8.80
2023-04-17T07:56:46.682Z,9.32
2023-04-17T07:59:14.456Z,8.15
2023-04-17T08:01:41.828Z,7.95
2023-04-17T08:04:09.444Z,7.68
2023-04-17T08:06:36.908Z,7.95
2023-04-17T08:09:04.929Z,7.55
2023-04-17T08:11:35.777Z,6.22
2023-04-17T08:14:11.774Z,6.45
2023-04-17T08:16:39.195Z,7.05
2023-04-17T08:19:06.838Z,7.07
2023-04-17T08:21:34.156Z,6.68
2023-04-17T08:24:01.555Z,5.85
2023-04-17T08:26:28.967Z,6.03
2023-04-17T08:28:56.309Z,5.45
2023-04-17T08:31:23.747Z,5.32
2023-04-17T08:33:54.859Z,4.95
2023-04-17T08:36:30.267Z,4.80
2023-04-17T08:38:57.682Z,4.68
2023-04-17T08:41:28.016Z,4.88
2023-04-17T08:43:57.562Z,4.68
2023-04-17T08:46:25.119Z,4.95
2023-04-17T08:48:52.520Z,4.20
2023-04-17T08:51:19.978Z,5.05
2023-04-17T08:53:47.308Z,4.72
2023-04-17T08:56:14.615Z,5.65
2023-04-17T08:58:41.944Z,5.30
2023-04-17T09:01:13.030Z,5.00
2023-04-17T09:03:44.441Z,5.97
2023-04-17T09:06:12.151Z,5.10
2023-04-17T09:08:40.607Z,4.93
2023-04-17T09:11:17.428Z,4.75
2023-04-17T09:13:44.845Z,3.65
2023-04-17T09:16:13.520Z,4.82
2023-04-17T09:18:43.127Z,4.45
2023-04-17T09:21:10.572Z,5.55
2023-04-17T09:24:07.792Z,4.88
2023-04-17T09:26:36.017Z,5.43
2023-04-17T09:29:14.824Z,5.57
2023-04-17T09:31:43.398Z,5.60
2023-04-17T09:34:12.216Z,4.97
2023-04-17T09:36:43.742Z,6.13
2023-04-17T09:39:20.756Z,5.13
2023-04-17T09:41:48.422Z,5.93
2023-04-17T09:44:38.175Z,7.40
2023-04-17T09:47:06.216Z,5.97
2023-04-17T09:49:34.592Z,5.60
2023-04-17T09:52:01.920Z,5.43
2023-04-17T09:54:31.700Z,6.03
2023-04-17T09:57:02.827Z,5.45
2023-04-17T09:59:30.829Z,5.60
2023-04-17T10:01:58.676Z,7.05
2023-04-17T10:04:26.305Z,5.97
2023-04-17T10:06:53.898Z,5.53
2023-04-17T10:09:21.211Z,5.75
2023-04-17T10:11:48.858Z,6.28
2023-04-17T10:14:32.847Z,6.40
2023-04-17T10:17:00.212Z,6.03
2023-04-17T10:19:33.536Z,6.85
2023-04-17T10:22:25.111Z,6.32
2023-04-17T10:24:53.590Z,5.15
2023-04-17T10:27:31.298Z,4.93
2023-04-17T10:29:59.654Z,5.97
2023-04-17T10:32:30.561Z,6.13
2023-04-17T10:34:59.077Z,6.40
2023-04-17T10:37:45.010Z,7.32
2023-04-17T10:40:14.372Z,6.72
2023-04-17T10:42:41.778Z,6.63
2023-04-17T10:45:19.334Z,5.90
2023-04-17T10:47:58.929Z,6.53
2023-04-17T10:50:30.172Z,7.13
2023-04-17T10:52:57.543Z,6.43
2023-04-17T10:55:27.716Z,7.85
2023-04-17T10:58:00.934Z,6.65
2023-04-17T11:00:30.595Z,8.20
2023-04-17T11:02:58.149Z,7.20
2023-04-17T11:05:25.676Z,7.70
2023-04-17T11:07:53.132Z,6.78
2023-04-17T11:10:20.817Z,4.43
2023-04-17T11:12:48.810Z,6.20
2023-04-17T11:15:16.715Z,6.97
2023-04-17T11:17:48.205Z,7.35
2023-04-17T11:20:17.644Z,7.00
2023-04-17T11:22:45.162Z,6.85
2023-04-17T11:25:38.939Z,7.00
2023-04-17T11:28:06.747Z,6.15
2023-04-17T11:30:45.084Z,7.10
2023-04-17T11:33:12.953Z,6.40
2023-04-17T11:35:41.264Z,7.68
2023-04-17T11:38:22.237Z,6.07
2023-04-17T11:40:54.030Z,6.88
2023-04-17T11:43:22.081Z,6.97
2023-04-17T11:45:51.301Z,6.85
2023-04-17T11:48:24.775Z,6.88
2023-04-17T11:50:55.486Z,6.30
2023-04-17T11:53:22.944Z,6.97
2023-04-17T11:56:10.535Z,6.70
2023-04-17T11:58:45.805Z,7.10
2023-04-17T12:01:13.633Z,6.65
2023-04-17T12:03:42.931Z,6.88
2023-04-17T12:06:13.433Z,6.78
2023-04-17T12:08:54.188Z,7.43
2023-04-17T12:11:32.060Z,7.25
2023-04-17T12:14:00.199Z,7.43
2023-04-17T12:16:29.360Z,7.13
2023-04-17T12:18:57.554Z,7.07
2023-04-17T12:21:24.970Z,6.57
2023-04-17T12:23:52.553Z,7.18
2023-04-17T12:26:20.072Z,8.13
2023-04-17T12:28:47.396Z,6.93
2023-04-17T12:31:14.823Z,7.22
2023-04-17T12:33:42.156Z,7.38
2023-04-17T12:36:09.756Z,7.68
2023-04-17T12:38:37.323Z,8.40
2023-04-17T12:41:04.725Z,7.80
2023-04-17T12:43:33.760Z,7.53
2023-04-17T12:46:01.883Z,7.43
2023-04-17T12:48:31.416Z,7.50
2023-04-17T12:51:00.141Z,8.73
2023-04-17T12:53:27.574Z,7.90
2023-04-17T12:55:55.024Z,6.95
2023-04-17T12:58:22.629Z,7.03
2023-04-17T13:00:50.002Z,6.93
2023-04-17T13:03:17.820Z,7.72
2023-04-17T13:05:45.456Z,7.10
2023-04-17T13:08:15.258Z,6.68
2023-04-17T13:10:43.107Z,7.07
2023-04-17T13:13:11.122Z,6.60
2023-04-17T13:15:38.549Z,6.78
2023-04-17T13:18:06.120Z,7.30
2023-04-17T13:20:33.537Z,6.05
2023-04-17T13:23:00.961Z,6.35
2023-04-17T13:25:28.357Z,6.00
2023-04-17T13:27:55.853Z,5.97
2023-04-17T13:30:23.309Z,6.63
2023-04-17T13:32:50.715Z,6.70
2023-04-17T13:35:18.144Z,6.22
2023-04-17T13:37:45.504Z,6.28
2023-04-17T13:40:13.185Z,6.78
2023-04-17T13:42:41.349Z,6.53
2023-04-17T13:45:08.935Z,7.38
2023-04-17T13:47:36.351Z,6.43
2023-04-17T13:50:03.734Z,6.50
2023-04-17T13:52:31.062Z,6.68
2023-04-17T13:54:58.389Z,7.53
2023-04-17T13:57:25.958Z,6.53
2023-04-17T13:59:53.465Z,6.63
2023-04-17T14:02:21.240Z,6.68
2023-04-17T14:04:48.993Z,6.00
2023-04-17T14:07:17.128Z,6.57
2023-04-17T14:09:44.470Z,7.18
2023-04-17T14:12:11.887Z,6.93
2023-04-17T14:14:39.230Z,6.43
2023-04-17T14:17:06.573Z,7.00
2023-04-17T14:19:33.949Z,6.05
2023-04-17T14:22:01.309Z,6.72
2023-04-17T14:24:28.704Z,6.78
2023-04-17T14:26:57.836Z,6.88
2023-04-17T14:29:25.272Z,5.90
2023-04-17T14:31:53.367Z,6.50
2023-04-17T14:34:20.947Z,6.07
2023-04-17T14:36:48.899Z,5.47
2023-04-17T14:39:16.294Z,5.28
2023-04-17T14:41:43.682Z,5.97
2023-04-17T14:44:11.195Z,5.28
2023-04-17T14:46:38.663Z,5.65
2023-04-17T14:49:06.041Z,6.28
2023-04-17T14:51:33.344Z,7.03
2023-04-17T14:54:00.750Z,6.80
2023-04-17T14:56:28.074Z,6.25
2023-04-17T14:58:55.499Z,6.07
2023-04-17T15:01:22.939Z,6.15
2023-04-17T15:03:51.005Z,5.80
2023-04-17T15:06:19.003Z,5.50
2023-04-17T15:08:46.375Z,5.78
2023-04-17T15:11:13.900Z,5.47
2023-04-17T15:13:41.297Z,6.55
2023-04-17T15:16:10.918Z,5.78
2023-04-17T15:18:39.978Z,5.13
2023-04-17T15:21:07.389Z,5.95
2023-04-17T15:23:35.684Z,6.30
2023-04-17T15:26:03.078Z,6.40
2023-04-17T15:28:30.509Z,5.43
2023-04-17T15:30:57.864Z,5.47
2023-04-17T15:33:25.177Z,5.93
2023-04-17T15:35:56.458Z,5.97
2023-04-17T15:38:23.826Z,6.03
2023-04-17T15:40:51.478Z,6.07
2023-04-17T15:43:19.187Z,6.20
2023-04-17T15:45:48.664Z,6.95
2023-04-17T15:48:16.119Z,6.88
2023-04-17T15:50:43.504Z,6.40
2023-04-17T15:53:11.206Z,6.30
2023-04-17T15:55:38.716Z,7.15
2023-04-17T15:58:06.117Z,6.80
2023-04-17T16:00:34.263Z,6.47
2023-04-17T16:03:01.998Z,6.57
2023-04-17T16:05:30.638Z,7.00
2023-04-17T16:07:58.087Z,6.88
2023-04-17T16:10:25.781Z,6.53
2023-04-17T16:12:53.096Z,7.00
2023-04-17T16:15:20.484Z,7.03
2023-04-17T16:17:48.943Z,6.80
2023-04-17T16:20:16.524Z,6.32
2023-04-17T16:22:43.972Z,6.40
2023-04-17T16:25:14.522Z,7.00
2023-04-17T16:27:41.971Z,6.88
2023-04-17T16:30:10.383Z,7.00
2023-04-17T16:32:37.840Z,7.75
2023-04-17T16:35:05.513Z,6.35
2023-04-17T16:37:32.840Z,6.07
2023-04-17T16:40:05.061Z,7.05
2023-04-17T16:42:33.427Z,5.90
2023-04-17T16:45:00.940Z,7.03
2023-04-17T16:47:31.636Z,6.40
2023-04-17T16:49:59.097Z,7.38
2023-04-17T16:52:26.449Z,9.40
2023-04-17T16:54:53.751Z,6.53
2023-04-17T16:57:21.202Z,5.70
2023-04-17T16:59:48.534Z,5.97
2023-04-17T17:02:15.994Z,9.10
2023-04-17T17:04:45.162Z,7.68
2023-04-17T17:07:12.667Z,6.88
2023-04-17T17:09:39.978Z,6.40
2023-04-17T17:12:07.321Z,6.93
2023-04-17T17:14:34.753Z,6.22
2023-04-17T17:17:02.205Z,6.32
2023-04-17T17:19:29.592Z,6.15
2023-04-17T17:21:56.943Z,6.20
2023-04-17T17:24:24.271Z,6.20
2023-04-17T17:26:51.670Z,6.30
2023-04-17T17:29:19.061Z,6.30
2023-04-17T17:31:46.479Z,5.70
2023-04-17T17:36:49.791Z,6.63
2023-04-17T17:39:17.235Z,8.43
2023-04-17T17:41:47.048Z,7.90
2023-04-17T17:44:15.068Z,8.57
2023-04-17T17:46:42.619Z,6.53
2023-04-17T17:49:10.343Z,5.75
2023-04-17T17:51:37.829Z,6.15
2023-04-17T17:54:05.310Z,5.65
2023-04-17T17:56:32.761Z,14.52
2023-04-17T17:59:00.230Z,8.43
2023-04-17T18:01:27.609Z,14.57
2023-04-17T18:03:55.351Z,6.40
2023-04-17T18:06:22.856Z,5.68
2023-04-17T18:08:50.170Z,6.68
2023-04-17T18:11:17.510Z,9.68
2023-04-17T18:13:44.832Z,8.73
2023-04-17T18:16:12.219Z,6.63
2023-04-17T18:18:39.834Z,6.88
2023-04-17T18:21:11.406Z,6.68
2023-04-17T18:23:38.732Z,6.93
2023-04-17T18:26:06.136Z,6.95
2023-04-17T18:28:33.871Z,8.05
2023-04-17T18:31:01.240Z,12.68
2023-04-17T18:33:29.034Z,7.13
2023-04-17T18:35:56.516Z,6.93
2023-04-17T18:38:23.985Z,6.38
2023-04-17T18:40:57.557Z,6.88
2023-04-17T18:43:24.914Z,6.95
2023-04-17T18:45:52.292Z,7.50
2023-04-17T18:48:19.635Z,7.95
2023-04-17T18:50:47.009Z,7.25
2023-04-17T18:53:14.419Z,7.88
2023-04-17T18:55:41.762Z,8.07
2023-04-17T18:58:09.176Z,7.80
2023-04-17T19:00:37.738Z,8.40
2023-04-17T19:03:06.611Z,8.30
2023-04-17T19:05:34.533Z,8.73
2023-04-17T19:08:01.960Z,9.55
2023-04-17T19:10:30.275Z,7.97
2023-04-17T19:12:57.624Z,8.40
2023-04-17T19:15:25.027Z,10.18
2023-04-17T19:17:52.906Z,9.77
2023-04-17T19:20:20.343Z,9.15
2023-04-17T19:22:47.678Z,9.88
2023-04-17T19:25:15.159Z,9.48
2023-04-17T19:27:42.489Z,9.60
2023-04-17T19:30:10.180Z,8.85
2023-04-17T19:32:37.634Z,9.05
2023-04-17T19:35:05.178Z,9.02
2023-04-17T19:37:33.423Z,10.02
2023-04-17T19:42:28.679Z,9.75
2023-04-17T19:44:56.033Z,9.23
2023-04-17T19:47:26.485Z,10.55
2023-04-17T19:49:53.932Z,9.88
2023-04-17T19:52:21.246Z,9.45
2023-04-17T19:54:48.991Z,9.23
2023-04-17T19:57:16.501Z,10.15
2023-04-17T19:59:43.958Z,8.93
2023-04-17T20:02:12.372Z,9.55
2023-04-17T20:04:39.943Z,10.18
2023-04-17T20:07:07.255Z,9.55
2023-04-17T20:09:34.581Z,10.13
2023-04-17T20:12:01.904Z,9.90
2023-04-17T20:14:29.272Z,9.20
2023-04-17T20:16:56.715Z,10.20
2023-04-17T20:19:24.479Z,9.70
2023-04-17T20:21:51.819Z,8.40
2023-04-17T20:24:19.182Z,9.38
2023-04-17T20:26:46.630Z,9.63
2023-04-17T20:29:14.320Z,8.82
2023-04-17T20:31:42.069Z,8.60
2023-04-17T20:34:09.554Z,8.88
2023-04-17T20:36:36.919Z,9.00
2023-04-17T20:39:04.344Z,9.52
2023-04-17T20:41:31.716Z,9.35
2023-04-17T20:43:59.749Z,8.68
2023-04-17T20:46:30.239Z,8.73
2023-04-17T20:48:57.644Z,8.38
2023-04-17T20:51:26.555Z,8.23
2023-04-17T20:53:54.385Z,8.45
2023-04-17T20:56:22.298Z,8.35
2023-04-17T20:58:49.646Z,8.60
2023-04-17T21:01:17.132Z,9.38
2023-04-17T21:03:44.663Z,8.82
2023-04-17T21:06:12.170Z,8.48
2023-04-17T21:08:42.338Z,8.90
2023-04-17T21:11:09.713Z,8.75
2023-04-17T21:13:37.029Z,8.65
2023-04-17T21:16:04.456Z,7.88
2023-04-17T21:18:31.869Z,8.45
2023-04-17T21:20:59.276Z,9.07
2023-04-17T21:23:26.584Z,9.27
2023-04-17T21:25:55.035Z,8.60
2023-04-17T21:28:22.475Z,9.10
2023-04-17T21:30:49.822Z,8.60
2023-04-17T21:33:17.237Z,8.70
2023-04-17T21:35:44.534Z,8.32
2023-04-17T21:38:12.158Z,8.82
2023-04-17T21:40:50.611Z,8.40
2023-04-17T21:43:18.958Z,7.93
2023-04-17T21:45:46.629Z,9.30
2023-04-17T21:48:15.396Z,9.40
2023-04-17T21:50:43.455Z,8.93
2023-04-17T21:53:10.965Z,8.00
2023-04-17T21:55:38.925Z,9.02
2023-04-17T21:58:06.279Z,8.93
2023-04-17T22:00:33.666Z,9.45
2023-04-17T22:03:01.066Z,9.77
2023-04-17T22:05:28.421Z,9.30
2023-04-17T22:07:55.805Z,9.20
2023-04-17T22:10:23.937Z,9.38
2023-04-17T22:12:51.560Z,9.07
2023-04-17T22:15:18.912Z,8.98
2023-04-17T22:17:46.268Z,8.68
2023-04-17T22:20:13.790Z,9.43
2023-04-17T22:22:41.131Z,9.13
2023-04-17T22:25:08.662Z,9.63
2023-04-17T22:27:36.034Z,8.65
2023-04-17T22:30:04.279Z,8.88
2023-04-17T22:32:31.665Z,9.38
2023-04-17T22:34:58.995Z,8.88
2023-04-17T22:37:26.490Z,9.50
2023-04-17T22:39:53.822Z,9.10
2023-04-17T22:42:21.260Z,9.13
2023-04-17T22:44:48.600Z,9.00
2023-04-17T22:47:16.155Z,9.25
2023-04-17T22:49:44.218Z,10.10
2023-04-17T22:52:11.537Z,8.70
2023-04-17T22:54:38.873Z,8.85
2023-04-17T22:57:06.283Z,8.77
2023-04-17T22:59:33.618Z,9.48
2023-04-17T23:02:00.989Z,8.73
2023-04-17T23:04:28.365Z,8.43
2023-04-17T23:06:55.771Z,8.60
2023-04-17T23:09:23.102Z,8.45
2023-04-17T23:11:50.424Z,8.30
2023-04-17T23:14:17.754Z,8.35
2023-04-17T23:16:45.072Z,8.32
2023-04-17T23:19:12.411Z,8.55
2023-04-17T23:21:39.712Z,7.35
2023-04-17T23:24:07.088Z,7.57
2023-04-17T23:26:34.387Z,7.60
2023-04-17T23:29:01.771Z,8.48
2023-04-17T23:31:29.147Z,7.43
2023-04-17T23:33:56.538Z,7.63
2023-04-17T23:36:23.862Z,8.02
2023-04-17T23:38:51.164Z,7.97
2023-04-17T23:41:18.521Z,8.27
2023-04-17T23:43:45.977Z,7.72
2023-04-17T23:46:13.399Z,8.43
2023-04-17T23:48:40.767Z,7.82
2023-04-17T23:51:09.110Z,7.13
2023-04-17T23:53:36.410Z,8.25
2023-04-17T23:56:04.393Z,7.10
2023-04-17T23:58:31.759Z,7.68
